Terminal Aerodrome Forecast
Issued by NWS Wilmington, OH

Current Version | Previous Version | Graphics & Text | Print | Product List | Glossary On
Versions: 1 2 3 4 5 6 7 8 9 10 11 12 13 14 15 16 17 18 19 20
403
FTUS41 KILN 291926 AAA
TAFDAY
TAF AMD
KDAY 291926Z 2919/3018 22007KT P6SM SCT040 BKN250
      TEMPO 2919/2921 VRB15G22KT 5SM -TSRA BKN040CB
     FM292300 24007KT P6SM VCTS BKN045CB
     FM300200 24005KT P6SM SCT050
     FM300500 30004KT P6SM SKC
     FM301500 33008KT P6SM FEW050=

USA.gov is the U.S. government's official web portal to all federal, state and local government web resources and services.